sensor_id;sensor_type;location;lat;lon;timestamp;P1;durP1;ratioP1;P2;durP2;ratioP2
41514;SDS011;27247;48.020;16.720;2022-10-16T03:26:20;66.57;;;40.90;;
41514;SDS011;27247;48.020;16.720;2022-10-16T03:30:31;71.55;;;42.97;;
41514;SDS011;27247;48.020;16.720;2022-10-16T03:34:41;72.00;;;41.22;;
41514;SDS011;27247;48.020;16.720;2022-10-16T03:38:52;70.93;;;40.17;;
41514;SDS011;27247;48.020;16.720;2022-10-16T03:43:02;73.37;;;42.03;;
41514;SDS011;27247;48.020;16.720;2022-10-16T03:47:12;75.77;;;41.60;;
41514;SDS011;27247;48.020;16.720;2022-10-16T03:51:22;69.90;;;39.53;;
41514;SDS011;27247;48.020;16.720;2022-10-16T03:55:34;62.38;;;38.03;;
41514;SDS011;27247;48.020;16.720;2022-10-16T03:59:44;70.75;;;40.50;;
41514;SDS011;27247;48.020;16.720;2022-10-16T04:03:55;76.87;;;44.03;;
41514;SDS011;27247;48.020;16.720;2022-10-16T04:08:05;72.88;;;41.80;;
41514;SDS011;27247;48.020;16.720;2022-10-16T04:12:16;84.22;;;48.22;;
41514;SDS011;27247;48.020;16.720;2022-10-16T04:16:26;78.17;;;45.07;;
41514;SDS011;27247;48.020;16.720;2022-10-16T04:20:36;77.17;;;44.60;;
41514;SDS011;27247;48.020;16.720;2022-10-16T04:24:47;79.10;;;44.70;;
41514;SDS011;27247;48.020;16.720;2022-10-16T04:28:57;74.23;;;43.63;;
41514;SDS011;27247;48.020;16.720;2022-10-16T04:33:08;76.60;;;45.53;;
41514;SDS011;27247;48.020;16.720;2022-10-16T04:37:22;80.40;;;44.00;;
41514;SDS011;27247;48.020;16.720;2022-10-16T04:41:34;77.80;;;45.03;;
41514;SDS011;27247;48.020;16.720;2022-10-16T04:45:44;69.15;;;40.78;;
41514;SDS011;27247;48.020;16.720;2022-10-16T04:49:54;78.20;;;45.40;;
41514;SDS011;27247;48.020;16.720;2022-10-16T04:54:05;74.50;;;46.43;;
41514;SDS011;27247;48.020;16.720;2022-10-16T04:58:15;79.67;;;44.33;;
41514;SDS011;27247;48.020;16.720;2022-10-16T05:02:25;80.60;;;46.45;;
41514;SDS011;27247;48.020;16.720;2022-10-16T05:06:36;73.63;;;41.33;;
41514;SDS011;27247;48.020;16.720;2022-10-16T05:10:48;77.47;;;44.85;;
41514;SDS011;27247;48.020;16.720;2022-10-16T05:14:58;70.57;;;42.50;;
41514;SDS011;27247;48.020;16.720;2022-10-16T05:19:09;73.03;;;44.97;;
41514;SDS011;27247;48.020;16.720;2022-10-16T05:23:19;76.38;;;44.15;;
41514;SDS011;27247;48.020;16.720;2022-10-16T05:27:29;81.73;;;45.77;;
41514;SDS011;27247;48.020;16.720;2022-10-16T05:31:40;77.97;;;44.77;;
41514;SDS011;27247;48.020;16.720;2022-10-16T05:35:50;84.68;;;47.67;;
41514;SDS011;27247;48.020;16.720;2022-10-16T05:40:01;83.20;;;47.22;;
41514;SDS011;27247;48.020;16.720;2022-10-16T05:44:14;89.43;;;48.50;;
41514;SDS011;27247;48.020;16.720;2022-10-16T05:48:25;80.37;;;46.80;;
41514;SDS011;27247;48.020;16.720;2022-10-16T05:52:35;84.90;;;46.42;;
41514;SDS011;27247;48.020;16.720;2022-10-16T05:56:46;85.18;;;47.35;;
41514;SDS011;27247;48.020;16.720;2022-10-16T06:01:00;83.00;;;45.03;;
41514;SDS011;27247;48.020;16.720;2022-10-16T06:05:12;69.15;;;42.78;;
41514;SDS011;27247;48.020;16.720;2022-10-16T06:09:23;69.30;;;40.75;;
41514;SDS011;27247;48.020;16.720;2022-10-16T06:13:33;70.67;;;43.00;;
41514;SDS011;27247;48.020;16.720;2022-10-16T06:17:44;73.75;;;42.13;;
41514;SDS011;27247;48.020;16.720;2022-10-16T06:21:54;77.27;;;43.30;;
41514;SDS011;27247;48.020;16.720;2022-10-16T06:26:08;75.88;;;42.92;;
41514;SDS011;27247;48.020;16.720;2022-10-16T06:30:20;71.93;;;43.40;;
41514;SDS011;27247;48.020;16.720;2022-10-16T06:34:30;75.27;;;42.10;;
41514;SDS011;27247;48.020;16.720;2022-10-16T06:38:41;73.43;;;41.72;;
41514;SDS011;27247;48.020;16.720;2022-10-16T06:42:54;72.30;;;42.50;;
41514;SDS011;27247;48.020;16.720;2022-10-16T06:47:05;81.10;;;44.72;;
41514;SDS011;27247;48.020;16.720;2022-10-16T06:51:22;80.10;;;45.10;;
41514;SDS011;27247;48.020;16.720;2022-10-16T06:55:34;75.25;;;44.33;;
41514;SDS011;27247;48.020;16.720;2022-10-16T06:59:44;76.17;;;45.90;;
41514;SDS011;27247;48.020;16.720;2022-10-16T07:03:54;91.53;;;51.00;;
41514;SDS011;27247;48.020;16.720;2022-10-16T07:08:05;86.85;;;51.88;;
41514;SDS011;27247;48.020;16.720;2022-10-16T07:12:15;82.93;;;51.50;;
41514;SDS011;27247;48.020;16.720;2022-10-16T07:16:27;90.23;;;52.73;;
41514;SDS011;27247;48.020;16.720;2022-10-16T07:20:38;101.47;;;53.78;;
41514;SDS011;27247;48.020;16.720;2022-10-16T07:24:48;91.13;;;52.93;;
41514;SDS011;27247;48.020;16.720;2022-10-16T07:29:00;93.25;;;55.03;;
41514;SDS011;27247;48.020;16.720;2022-10-16T07:33:11;82.75;;;50.92;;
41514;SDS011;27247;48.020;16.720;2022-10-16T07:37:21;85.10;;;51.80;;
41514;SDS011;27247;48.020;16.720;2022-10-16T07:41:32;85.57;;;52.63;;
41514;SDS011;27247;48.020;16.720;2022-10-16T07:45:46;84.43;;;52.40;;
41514;SDS011;27247;48.020;16.720;2022-10-16T07:49:58;81.53;;;47.92;;
41514;SDS011;27247;48.020;16.720;2022-10-16T07:54:09;77.93;;;49.53;;
41514;SDS011;27247;48.020;16.720;2022-10-16T07:58:20;77.32;;;47.50;;
41514;SDS011;27247;48.020;16.720;2022-10-16T08:02:30;82.28;;;52.20;;
41514;SDS011;27247;48.020;16.720;2022-10-16T08:06:41;79.40;;;49.05;;
41514;SDS011;27247;48.020;16.720;2022-10-16T08:10:52;85.88;;;50.95;;
41514;SDS011;27247;48.020;16.720;2022-10-16T08:15:02;82.55;;;50.45;;
41514;SDS011;27247;48.020;16.720;2022-10-16T08:19:13;77.05;;;48.20;;
41514;SDS011;27247;48.020;16.720;2022-10-16T08:23:25;78.32;;;46.83;;
41514;SDS011;27247;48.020;16.720;2022-10-16T08:27:36;70.10;;;45.42;;
41514;SDS011;27247;48.020;16.720;2022-10-16T08:31:46;76.63;;;46.37;;
41514;SDS011;27247;48.020;16.720;2022-10-16T08:35:57;77.90;;;49.73;;
41514;SDS011;27247;48.020;16.720;2022-10-16T08:40:13;76.28;;;47.38;;
41514;SDS011;27247;48.020;16.720;2022-10-16T08:48:59;76.93;;;47.88;;
41514;SDS011;27247;48.020;16.720;2022-10-16T08:53:13;83.68;;;52.00;;
41514;SDS011;27247;48.020;16.720;2022-10-16T08:57:29;85.95;;;53.13;;
41514;SDS011;27247;48.020;16.720;2022-10-16T09:01:42;84.32;;;50.85;;
41514;SDS011;27247;48.020;16.720;2022-10-16T09:10:34;83.82;;;51.55;;
41514;SDS011;27247;48.020;16.720;2022-10-16T09:15:21;84.70;;;51.03;;
41514;SDS011;27247;48.020;16.720;2022-10-16T09:24:18;84.10;;;53.40;;
41514;SDS011;27247;48.020;16.720;2022-10-16T09:28:30;87.75;;;53.88;;
41514;SDS011;27247;48.020;16.720;2022-10-16T09:32:41;85.60;;;54.40;;
41514;SDS011;27247;48.020;16.720;2022-10-16T09:36:53;87.13;;;56.50;;
41514;SDS011;27247;48.020;16.720;2022-10-16T09:41:17;86.47;;;53.67;;
41514;SDS011;27247;48.020;16.720;2022-10-16T09:45:31;86.00;;;53.30;;
41514;SDS011;27247;48.020;16.720;2022-10-16T09:49:50;79.15;;;50.67;;
41514;SDS011;27247;48.020;16.720;2022-10-16T09:54:13;86.80;;;51.65;;
41514;SDS011;27247;48.020;16.720;2022-10-16T09:58:25;84.25;;;52.75;;
41514;SDS011;27247;48.020;16.720;2022-10-16T10:02:36;73.00;;;51.57;;
41514;SDS011;27247;48.020;16.720;2022-10-16T10:06:52;76.10;;;50.63;;
41514;SDS011;27247;48.020;16.720;2022-10-16T10:11:04;77.63;;;48.38;;
41514;SDS011;27247;48.020;16.720;2022-10-16T10:15:15;76.18;;;48.88;;
41514;SDS011;27247;48.020;16.720;2022-10-16T10:23:54;77.10;;;50.33;;
41514;SDS011;27247;48.020;16.720;2022-10-16T10:36:42;76.90;;;49.17;;
41514;SDS011;27247;48.020;16.720;2022-10-16T10:41:04;77.67;;;51.87;;
41514;SDS011;27247;48.020;16.720;2022-10-16T10:50:42;77.72;;;49.40;;
41514;SDS011;27247;48.020;16.720;2022-10-16T11:08:10;79.78;;;49.80;;
41514;SDS011;27247;48.020;16.720;2022-10-16T11:12:38;68.85;;;45.63;;
41514;SDS011;27247;48.020;16.720;2022-10-16T11:21:25;73.30;;;45.93;;
41514;SDS011;27247;48.020;16.720;2022-10-16T11:25:38;65.97;;;43.05;;
41514;SDS011;27247;48.020;16.720;2022-10-16T11:29:51;64.60;;;43.47;;
41514;SDS011;27247;48.020;16.720;2022-10-16T11:34:12;67.13;;;43.58;;
41514;SDS011;27247;48.020;16.720;2022-10-16T11:43:02;63.30;;;42.08;;
41514;SDS011;27247;48.020;16.720;2022-10-16T11:47:26;59.72;;;43.05;;
41514;SDS011;27247;48.020;16.720;2022-10-16T11:51:45;57.78;;;41.05;;
41514;SDS011;27247;48.020;16.720;2022-10-16T11:56:04;61.67;;;40.33;;
41514;SDS011;27247;48.020;16.720;2022-10-16T12:00:23;62.05;;;40.08;;
41514;SDS011;27247;48.020;16.720;2022-10-16T12:05:23;61.95;;;39.75;;
41514;SDS011;27247;48.020;16.720;2022-10-16T12:13:42;54.10;;;38.10;;
41514;SDS011;27247;48.020;16.720;2022-10-16T12:17:53;54.03;;;37.20;;
41514;SDS011;27247;48.020;16.720;2022-10-16T12:22:04;50.80;;;36.78;;
41514;SDS011;27247;48.020;16.720;2022-10-16T12:26:28;51.97;;;36.28;;
41514;SDS011;27247;48.020;16.720;2022-10-16T12:30:42;56.88;;;36.05;;
41514;SDS011;27247;48.020;16.720;2022-10-16T12:35:02;45.65;;;34.55;;
41514;SDS011;27247;48.020;16.720;2022-10-16T12:39:21;48.30;;;35.35;;
41514;SDS011;27247;48.020;16.720;2022-10-16T12:47:55;53.13;;;35.40;;
41514;SDS011;27247;48.020;16.720;2022-10-16T12:52:22;43.75;;;32.65;;
41514;SDS011;27247;48.020;16.720;2022-10-16T13:01:02;49.40;;;34.38;;
41514;SDS011;27247;48.020;16.720;2022-10-16T13:23:36;45.35;;;30.95;;
41514;SDS011;27247;48.020;16.720;2022-10-16T13:28:12;43.22;;;31.70;;
41514;SDS011;27247;48.020;16.720;2022-10-16T13:32:23;41.85;;;29.90;;
41514;SDS011;27247;48.020;16.720;2022-10-16T13:36:44;44.17;;;31.73;;
41514;SDS011;27247;48.020;16.720;2022-10-16T13:40:57;40.60;;;28.02;;
41514;SDS011;27247;48.020;16.720;2022-10-16T13:45:24;39.53;;;29.05;;
41514;SDS011;27247;48.020;16.720;2022-10-16T13:49:35;40.08;;;28.95;;
41514;SDS011;27247;48.020;16.720;2022-10-16T13:53:45;41.33;;;27.73;;
41514;SDS011;27247;48.020;16.720;2022-10-16T13:58:04;42.88;;;28.60;;
41514;SDS011;27247;48.020;16.720;2022-10-16T14:06:36;43.65;;;30.20;;
41514;SDS011;27247;48.020;16.720;2022-10-16T14:10:52;42.53;;;27.52;;
41514;SDS011;27247;48.020;16.720;2022-10-16T14:15:05;38.20;;;28.20;;
41514;SDS011;27247;48.020;16.720;2022-10-16T14:19:26;41.63;;;28.92;;
41514;SDS011;27247;48.020;16.720;2022-10-16T14:23:39;35.55;;;26.70;;
41514;SDS011;27247;48.020;16.720;2022-10-16T14:28:36;38.70;;;26.83;;
41514;SDS011;27247;48.020;16.720;2022-10-16T14:32:26;37.80;;;26.50;;
41514;SDS011;27247;48.020;16.720;2022-10-16T14:36:36;38.08;;;26.42;;
41514;SDS011;27247;48.020;16.720;2022-10-16T14:40:50;38.72;;;26.55;;
41514;SDS011;27247;48.020;16.720;2022-10-16T14:45:01;40.03;;;27.88;;
41514;SDS011;27247;48.020;16.720;2022-10-16T14:49:19;37.83;;;26.55;;
41514;SDS011;27247;48.020;16.720;2022-10-16T14:53:32;35.13;;;26.55;;
41514;SDS011;27247;48.020;16.720;2022-10-16T14:57:42;33.13;;;25.20;;
41514;SDS011;27247;48.020;16.720;2022-10-16T15:01:54;32.85;;;25.38;;
41514;SDS011;27247;48.020;16.720;2022-10-16T15:06:09;34.83;;;24.73;;
41514;SDS011;27247;48.020;16.720;2022-10-16T15:10:22;35.45;;;25.50;;
41514;SDS011;27247;48.020;16.720;2022-10-16T15:14:34;35.08;;;25.52;;
41514;SDS011;27247;48.020;16.720;2022-10-16T15:18:44;37.17;;;26.53;;
41514;SDS011;27247;48.020;16.720;2022-10-16T15:22:55;37.67;;;26.25;;
